sensor_id;sensor_type;location;lat;lon;timestamp;temperature;humidity
36352;DHT22;22382;44.768;17.206;2022-07-19T00:00:43;16.30;89.30
36352;DHT22;22382;44.768;17.206;2022-07-19T00:03:14;16.20;89.80
36352;DHT22;22382;44.768;17.206;2022-07-19T00:05:42;16.20;90.20
36352;DHT22;22382;44.768;17.206;2022-07-19T00:08:09;16.10;90.70
36352;DHT22;22382;44.768;17.206;2022-07-19T00:10:37;16.10;91.40
36352;DHT22;22382;44.768;17.206;2022-07-19T00:13:04;16.10;91.20
36352;DHT22;22382;44.768;17.206;2022-07-19T00:15:31;16.10;91.60
36352;DHT22;22382;44.768;17.206;2022-07-19T00:17:59;16.00;91.90
36352;DHT22;22382;44.768;17.206;2022-07-19T00:20:26;16.00;92.40
36352;DHT22;22382;44.768;17.206;2022-07-19T00:22:53;16.00;92.70
36352;DHT22;22382;44.768;17.206;2022-07-19T00:25:20;15.90;92.90
36352;DHT22;22382;44.768;17.206;2022-07-19T00:27:48;15.90;93.20
36352;DHT22;22382;44.768;17.206;2022-07-19T00:30:15;15.80;93.90
36352;DHT22;22382;44.768;17.206;2022-07-19T00:32:42;15.80;94.20
36352;DHT22;22382;44.768;17.206;2022-07-19T00:35:09;15.70;94.60
36352;DHT22;22382;44.768;17.206;2022-07-19T00:37:36;15.70;95.10
36352;DHT22;22382;44.768;17.206;2022-07-19T00:40:12;15.70;95.20
36352;DHT22;22382;44.768;17.206;2022-07-19T00:42:40;15.60;95.50
36352;DHT22;22382;44.768;17.206;2022-07-19T00:45:07;15.50;95.80
36352;DHT22;22382;44.768;17.206;2022-07-19T00:47:35;15.50;96.30
36352;DHT22;22382;44.768;17.206;2022-07-19T00:50:02;15.50;97.50
36352;DHT22;22382;44.768;17.206;2022-07-19T00:52:30;15.50;97.10
36352;DHT22;22382;44.768;17.206;2022-07-19T00:54:58;15.50;96.70
36352;DHT22;22382;44.768;17.206;2022-07-19T00:57:26;15.40;97.00
36352;DHT22;22382;44.768;17.206;2022-07-19T00:59:54;15.40;97.10
36352;DHT22;22382;44.768;17.206;2022-07-19T01:02:24;15.40;98.30
36352;DHT22;22382;44.768;17.206;2022-07-19T01:04:52;15.40;97.50
36352;DHT22;22382;44.768;17.206;2022-07-19T01:07:23;15.30;97.50
36352;DHT22;22382;44.768;17.206;2022-07-19T01:09:50;15.30;97.70
36352;DHT22;22382;44.768;17.206;2022-07-19T01:12:19;15.30;98.00
36352;DHT22;22382;44.768;17.206;2022-07-19T01:14:48;15.30;98.00
36352;DHT22;22382;44.768;17.206;2022-07-19T01:17:15;15.20;98.10
36352;DHT22;22382;44.768;17.206;2022-07-19T01:19:43;15.20;98.90
36352;DHT22;22382;44.768;17.206;2022-07-19T01:22:10;15.20;98.50
36352;DHT22;22382;44.768;17.206;2022-07-19T01:24:37;15.10;98.90
36352;DHT22;22382;44.768;17.206;2022-07-19T01:27:05;15.10;99.20
36352;DHT22;22382;44.768;17.206;2022-07-19T01:29:33;15.10;99.00
36352;DHT22;22382;44.768;17.206;2022-07-19T01:32:05;15.10;99.30
36352;DHT22;22382;44.768;17.206;2022-07-19T01:34:32;15.10;99.30
36352;DHT22;22382;44.768;17.206;2022-07-19T01:37:00;15.10;99.30
36352;DHT22;22382;44.768;17.206;2022-07-19T01:39:27;15.10;99.30
36352;DHT22;22382;44.768;17.206;2022-07-19T01:41:54;15.00;99.40
36352;DHT22;22382;44.768;17.206;2022-07-19T01:44:21;15.00;99.90
36352;DHT22;22382;44.768;17.206;2022-07-19T01:46:48;15.00;99.80
36352;DHT22;22382;44.768;17.206;2022-07-19T01:49:15;15.00;99.90
36352;DHT22;22382;44.768;17.206;2022-07-19T01:51:42;14.90;99.90
36352;DHT22;22382;44.768;17.206;2022-07-19T01:54:09;14.90;99.90
36352;DHT22;22382;44.768;17.206;2022-07-19T01:56:36;14.90;99.90
36352;DHT22;22382;44.768;17.206;2022-07-19T01:59:03;14.90;99.90
36352;DHT22;22382;44.768;17.206;2022-07-19T02:01:30;15.00;99.90
36352;DHT22;22382;44.768;17.206;2022-07-19T02:03:57;14.90;99.90
36352;DHT22;22382;44.768;17.206;2022-07-19T02:06:24;14.90;99.90
36352;DHT22;22382;44.768;17.206;2022-07-19T02:08:51;14.90;99.90
36352;DHT22;22382;44.768;17.206;2022-07-19T02:11:18;14.80;99.90
36352;DHT22;22382;44.768;17.206;2022-07-19T02:14:05;14.80;99.90
36352;DHT22;22382;44.768;17.206;2022-07-19T02:16:32;14.70;99.90
36352;DHT22;22382;44.768;17.206;2022-07-19T02:18:59;14.70;99.90
36352;DHT22;22382;44.768;17.206;2022-07-19T02:21:26;14.70;99.90
36352;DHT22;22382;44.768;17.206;2022-07-19T02:23:53;14.70;99.90
36352;DHT22;22382;44.768;17.206;2022-07-19T02:26:20;14.60;99.90
36352;DHT22;22382;44.768;17.206;2022-07-19T02:28:48;14.60;99.90
36352;DHT22;22382;44.768;17.206;2022-07-19T02:31:15;14.50;99.90
36352;DHT22;22382;44.768;17.206;2022-07-19T02:33:43;14.50;99.90
36352;DHT22;22382;44.768;17.206;2022-07-19T02:36:10;14.50;99.90
36352;DHT22;22382;44.768;17.206;2022-07-19T02:38:37;14.50;99.90
36352;DHT22;22382;44.768;17.206;2022-07-19T02:41:04;14.50;99.90
36352;DHT22;22382;44.768;17.206;2022-07-19T02:43:31;14.50;99.90
36352;DHT22;22382;44.768;17.206;2022-07-19T02:45:58;14.40;99.90
36352;DHT22;22382;44.768;17.206;2022-07-19T02:48:26;14.30;99.90
36352;DHT22;22382;44.768;17.206;2022-07-19T02:50:53;14.30;99.90
36352;DHT22;22382;44.768;17.206;2022-07-19T02:53:20;14.30;99.90
36352;DHT22;22382;44.768;17.206;2022-07-19T02:55:47;14.30;99.90
36352;DHT22;22382;44.768;17.206;2022-07-19T02:58:14;14.40;99.90
36352;DHT22;22382;44.768;17.206;2022-07-19T03:00:42;14.40;99.90
36352;DHT22;22382;44.768;17.206;2022-07-19T03:03:09;14.40;99.90
36352;DHT22;22382;44.768;17.206;2022-07-19T03:06:05;14.40;99.90
36352;DHT22;22382;44.768;17.206;2022-07-19T03:08:32;14.40;99.90
36352;DHT22;22382;44.768;17.206;2022-07-19T03:10:59;14.40;99.90
36352;DHT22;22382;44.768;17.206;2022-07-19T03:13:26;14.40;99.90
36352;DHT22;22382;44.768;17.206;2022-07-19T03:15:55;14.40;99.90
36352;DHT22;22382;44.768;17.206;2022-07-19T03:18:22;14.40;99.90
36352;DHT22;22382;44.768;17.206;2022-07-19T03:20:49;14.30;99.90
36352;DHT22;22382;44.768;17.206;2022-07-19T03:23:16;14.30;99.90
36352;DHT22;22382;44.768;17.206;2022-07-19T03:25:43;14.20;99.90
36352;DHT22;22382;44.768;17.206;2022-07-19T03:28:10;14.20;99.90
36352;DHT22;22382;44.768;17.206;2022-07-19T03:30:37;14.20;99.90
36352;DHT22;22382;44.768;17.206;2022-07-19T03:33:04;14.30;99.90
36352;DHT22;22382;44.768;17.206;2022-07-19T03:35:31;14.30;99.90
36352;DHT22;22382;44.768;17.206;2022-07-19T03:37:58;14.30;99.90
36352;DHT22;22382;44.768;17.206;2022-07-19T03:40:25;14.30;99.90
36352;DHT22;22382;44.768;17.206;2022-07-19T03:42:52;14.30;99.90
36352;DHT22;22382;44.768;17.206;2022-07-19T03:45:19;14.30;99.90
36352;DHT22;22382;44.768;17.206;2022-07-19T03:47:46;14.30;99.90
36352;DHT22;22382;44.768;17.206;2022-07-19T03:50:13;14.50;99.90
36352;DHT22;22382;44.768;17.206;2022-07-19T03:52:40;14.90;99.90
36352;DHT22;22382;44.768;17.206;2022-07-19T03:55:08;15.40;99.90
36352;DHT22;22382;44.768;17.206;2022-07-19T03:57:35;15.90;99.80
36352;DHT22;22382;44.768;17.206;2022-07-19T04:00:03;16.30;97.60
36352;DHT22;22382;44.768;17.206;2022-07-19T04:02:31;16.60;95.50
36352;DHT22;22382;44.768;17.206;2022-07-19T04:04:58;16.80;94.10
36352;DHT22;22382;44.768;17.206;2022-07-19T04:07:26;17.00;93.70
36352;DHT22;22382;44.768;17.206;2022-07-19T04:09:53;17.10;92.60
36352;DHT22;22382;44.768;17.206;2022-07-19T04:12:20;17.40;91.90
36352;DHT22;22382;44.768;17.206;2022-07-19T04:14:47;17.60;90.60
36352;DHT22;22382;44.768;17.206;2022-07-19T04:17:14;17.70;90.50
36352;DHT22;22382;44.768;17.206;2022-07-19T04:19:41;17.90;89.30
36352;DHT22;22382;44.768;17.206;2022-07-19T04:22:08;18.10;88.40
36352;DHT22;22382;44.768;17.206;2022-07-19T04:24:35;18.30;85.70
36352;DHT22;22382;44.768;17.206;2022-07-19T04:27:03;18.50;82.20
36352;DHT22;22382;44.768;17.206;2022-07-19T04:29:30;18.60;79.20
36352;DHT22;22382;44.768;17.206;2022-07-19T04:31:57;18.70;77.90
36352;DHT22;22382;44.768;17.206;2022-07-19T04:34:24;18.90;76.60
36352;DHT22;22382;44.768;17.206;2022-07-19T04:36:51;18.90;75.40
36352;DHT22;22382;44.768;17.206;2022-07-19T04:39:18;19.00;74.60
36352;DHT22;22382;44.768;17.206;2022-07-19T04:41:45;19.00;74.70
36352;DHT22;22382;44.768;17.206;2022-07-19T04:44:12;19.10;74.40
36352;DHT22;22382;44.768;17.206;2022-07-19T04:46:39;19.30;74.00
36352;DHT22;22382;44.768;17.206;2022-07-19T04:49:12;19.40;72.80
36352;DHT22;22382;44.768;17.206;2022-07-19T04:51:39;19.50;72.10
36352;DHT22;22382;44.768;17.206;2022-07-19T04:54:06;19.60;70.90
36352;DHT22;22382;44.768;17.206;2022-07-19T04:56:33;19.70;70.40
36352;DHT22;22382;44.768;17.206;2022-07-19T04:59:00;20.00;69.30
36352;DHT22;22382;44.768;17.206;2022-07-19T05:01:27;20.20;68.10
36352;DHT22;22382;44.768;17.206;2022-07-19T05:03:55;20.30;68.60
36352;DHT22;22382;44.768;17.206;2022-07-19T05:06:22;20.50;68.90
36352;DHT22;22382;44.768;17.206;2022-07-19T05:08:52;20.70;68.80
36352;DHT22;22382;44.768;17.206;2022-07-19T05:11:20;20.80;67.70
36352;DHT22;22382;44.768;17.206;2022-07-19T05:13:47;20.90;66.00
36352;DHT22;22382;44.768;17.206;2022-07-19T05:16:14;20.90;65.00
36352;DHT22;22382;44.768;17.206;2022-07-19T05:18:41;20.90;64.20
36352;DHT22;22382;44.768;17.206;2022-07-19T05:21:08;21.00;65.50
36352;DHT22;22382;44.768;17.206;2022-07-19T05:23:35;21.20;63.70
36352;DHT22;22382;44.768;17.206;2022-07-19T05:26:02;21.50;63.20
36352;DHT22;22382;44.768;17.206;2022-07-19T05:28:29;21.60;62.10
36352;DHT22;22382;44.768;17.206;2022-07-19T05:31:02;21.80;60.40
36352;DHT22;22382;44.768;17.206;2022-07-19T05:33:29;22.10;60.00
36352;DHT22;22382;44.768;17.206;2022-07-19T05:35:56;22.10;60.70
36352;DHT22;22382;44.768;17.206;2022-07-19T05:38:23;22.40;60.60
36352;DHT22;22382;44.768;17.206;2022-07-19T05:40:50;22.50;58.40
36352;DHT22;22382;44.768;17.206;2022-07-19T05:43:17;22.10;59.70
36352;DHT22;22382;44.768;17.206;2022-07-19T05:45:45;22.30;59.80
36352;DHT22;22382;44.768;17.206;2022-07-19T05:48:12;22.50;59.20
36352;DHT22;22382;44.768;17.206;2022-07-19T05:50:39;22.10;60.10
36352;DHT22;22382;44.768;17.206;2022-07-19T05:53:06;22.30;59.60
36352;DHT22;22382;44.768;17.206;2022-07-19T05:55:33;22.40;59.60
36352;DHT22;22382;44.768;17.206;2022-07-19T05:58:00;22.50;59.00
36352;DHT22;22382;44.768;17.206;2022-07-19T06:00:27;22.70;59.00
36352;DHT22;22382;44.768;17.206;2022-07-19T06:02:54;22.90;58.10
36352;DHT22;22382;44.768;17.206;2022-07-19T06:05:21;22.80;58.60
36352;DHT22;22382;44.768;17.206;2022-07-19T06:07:48;23.00;58.30
36352;DHT22;22382;44.768;17.206;2022-07-19T06:10:16;23.20;57.90
36352;DHT22;22382;44.768;17.206;2022-07-19T06:12:43;23.40;56.60
36352;DHT22;22382;44.768;17.206;2022-07-19T06:15:10;23.50;57.40
36352;DHT22;22382;44.768;17.206;2022-07-19T06:17:38;23.50;56.40
36352;DHT22;22382;44.768;17.206;2022-07-19T06:20:05;23.50;56.50
36352;DHT22;22382;44.768;17.206;2022-07-19T06:22:32;23.60;54.60
36352;DHT22;22382;44.768;17.206;2022-07-19T06:24:59;23.70;54.60
36352;DHT22;22382;44.768;17.206;2022-07-19T06:27:26;23.90;54.50
36352;DHT22;22382;44.768;17.206;2022-07-19T06:29:53;24.00;55.60
36352;DHT22;22382;44.768;17.206;2022-07-19T06:32:20;24.10;54.70
36352;DHT22;22382;44.768;17.206;2022-07-19T06:34:47;23.70;54.90
36352;DHT22;22382;44.768;17.206;2022-07-19T06:37:14;24.10;53.90
36352;DHT22;22382;44.768;17.206;2022-07-19T06:39:41;24.20;52.90
36352;DHT22;22382;44.768;17.206;2022-07-19T06:42:08;24.20;53.90
36352;DHT22;22382;44.768;17.206;2022-07-19T06:44:35;24.50;52.80
36352;DHT22;22382;44.768;17.206;2022-07-19T06:47:03;24.60;53.10
36352;DHT22;22382;44.768;17.206;2022-07-19T06:49:30;24.40;54.90
36352;DHT22;22382;44.768;17.206;2022-07-19T06:51:57;24.40;53.00
36352;DHT22;22382;44.768;17.206;2022-07-19T06:54:24;24.30;53.50
36352;DHT22;22382;44.768;17.206;2022-07-19T06:56:51;24.30;53.80
36352;DHT22;22382;44.768;17.206;2022-07-19T06:59:18;24.30;54.70
36352;DHT22;22382;44.768;17.206;2022-07-19T07:01:45;24.50;54.80
36352;DHT22;22382;44.768;17.206;2022-07-19T07:04:12;24.80;54.00
36352;DHT22;22382;44.768;17.206;2022-07-19T07:06:39;25.00;53.30
36352;DHT22;22382;44.768;17.206;2022-07-19T07:09:06;24.90;53.00
36352;DHT22;22382;44.768;17.206;2022-07-19T07:11:33;25.10;53.40
36352;DHT22;22382;44.768;17.206;2022-07-19T07:14:01;25.20;50.60
36352;DHT22;22382;44.768;17.206;2022-07-19T07:16:28;25.50;50.80
36352;DHT22;22382;44.768;17.206;2022-07-19T07:18:56;25.80;50.40
36352;DHT22;22382;44.768;17.206;2022-07-19T07:21:23;26.00;49.70
36352;DHT22;22382;44.768;17.206;2022-07-19T07:23:50;26.00;49.10
36352;DHT22;22382;44.768;17.206;2022-07-19T07:26:17;26.30;48.50
36352;DHT22;22382;44.768;17.206;2022-07-19T07:28:44;26.50;50.00
36352;DHT22;22382;44.768;17.206;2022-07-19T07:31:11;26.50;48.10
36352;DHT22;22382;44.768;17.206;2022-07-19T07:33:38;26.70;47.40
36352;DHT22;22382;44.768;17.206;2022-07-19T07:36:06;26.90;46.50
36352;DHT22;22382;44.768;17.206;2022-07-19T07:38:33;27.10;46.90
36352;DHT22;22382;44.768;17.206;2022-07-19T07:41:00;27.10;46.40
36352;DHT22;22382;44.768;17.206;2022-07-19T07:43:47;27.20;46.30
36352;DHT22;22382;44.768;17.206;2022-07-19T07:46:15;27.30;44.50
36352;DHT22;22382;44.768;17.206;2022-07-19T07:48:42;27.30;44.20
36352;DHT22;22382;44.768;17.206;2022-07-19T07:51:09;27.40;45.10
36352;DHT22;22382;44.768;17.206;2022-07-19T07:53:58;27.10;47.80
36352;DHT22;22382;44.768;17.206;2022-07-19T07:56:26;27.10;46.70
36352;DHT22;22382;44.768;17.206;2022-07-19T07:58:54;27.20;44.90
36352;DHT22;22382;44.768;17.206;2022-07-19T08:01:21;27.30;44.50
36352;DHT22;22382;44.768;17.206;2022-07-19T08:03:48;27.20;46.20
36352;DHT22;22382;44.768;17.206;2022-07-19T08:06:16;27.20;45.00
36352;DHT22;22382;44.768;17.206;2022-07-19T08:08:43;27.10;45.20
36352;DHT22;22382;44.768;17.206;2022-07-19T08:11:10;27.10;45.50
36352;DHT22;22382;44.768;17.206;2022-07-19T08:13:37;27.30;45.70
36352;DHT22;22382;44.768;17.206;2022-07-19T08:16:04;27.40;44.60
36352;DHT22;22382;44.768;17.206;2022-07-19T08:18:33;27.40;43.70
36352;DHT22;22382;44.768;17.206;2022-07-19T08:21:04;27.50;43.80
36352;DHT22;22382;44.768;17.206;2022-07-19T08:23:31;27.30;45.10
36352;DHT22;22382;44.768;17.206;2022-07-19T08:25:58;27.40;43.80
36352;DHT22;22382;44.768;17.206;2022-07-19T08:28:25;27.20;45.30
36352;DHT22;22382;44.768;17.206;2022-07-19T08:30:52;27.30;46.00
36352;DHT22;22382;44.768;17.206;2022-07-19T08:33:37;27.30;45.00
36352;DHT22;22382;44.768;17.206;2022-07-19T08:36:05;27.60;44.30
36352;DHT22;22382;44.768;17.206;2022-07-19T08:38:33;27.80;46.30
36352;DHT22;22382;44.768;17.206;2022-07-19T08:41:01;27.90;44.60
36352;DHT22;22382;44.768;17.206;2022-07-19T08:43:28;27.80;43.80
36352;DHT22;22382;44.768;17.206;2022-07-19T08:46:03;27.80;43.30
36352;DHT22;22382;44.768;17.206;2022-07-19T08:48:35;27.90;44.40
36352;DHT22;22382;44.768;17.206;2022-07-19T08:51:12;28.00;45.00
36352;DHT22;22382;44.768;17.206;2022-07-19T08:53:39;28.10;43.00
36352;DHT22;22382;44.768;17.206;2022-07-19T08:56:07;27.90;42.30
36352;DHT22;22382;44.768;17.206;2022-07-19T08:58:54;28.10;43.20
36352;DHT22;22382;44.768;17.206;2022-07-19T09:01:22;28.30;43.30
36352;DHT22;22382;44.768;17.206;2022-07-19T09:04:15;28.50;44.70
36352;DHT22;22382;44.768;17.206;2022-07-19T09:09:11;28.40;41.30
36352;DHT22;22382;44.768;17.206;2022-07-19T09:11:40;28.30;41.60
36352;DHT22;22382;44.768;17.206;2022-07-19T09:14:34;28.30;43.20
36352;DHT22;22382;44.768;17.206;2022-07-19T09:19:36;28.60;42.90
36352;DHT22;22382;44.768;17.206;2022-07-19T09:22:09;28.80;42.90
36352;DHT22;22382;44.768;17.206;2022-07-19T09:24:44;28.90;42.30
36352;DHT22;22382;44.768;17.206;2022-07-19T09:27:17;28.40;42.90
36352;DHT22;22382;44.768;17.206;2022-07-19T09:29:47;28.60;43.50
36352;DHT22;22382;44.768;17.206;2022-07-19T09:32:16;28.60;40.40
36352;DHT22;22382;44.768;17.206;2022-07-19T09:34:52;28.80;41.60
36352;DHT22;22382;44.768;17.206;2022-07-19T09:37:20;28.80;42.60
36352;DHT22;22382;44.768;17.206;2022-07-19T09:39:51;28.60;42.40
36352;DHT22;22382;44.768;17.206;2022-07-19T09:42:22;28.70;43.00
36352;DHT22;22382;44.768;17.206;2022-07-19T09:45:05;28.70;42.50
36352;DHT22;22382;44.768;17.206;2022-07-19T09:47:37;28.40;42.70
36352;DHT22;22382;44.768;17.206;2022-07-19T09:50:11;28.70;43.80
36352;DHT22;22382;44.768;17.206;2022-07-19T09:52:42;29.00;43.30
36352;DHT22;22382;44.768;17.206;2022-07-19T09:55:14;28.90;42.20
36352;DHT22;22382;44.768;17.206;2022-07-19T09:57:50;29.10;40.70
36352;DHT22;22382;44.768;17.206;2022-07-19T10:00:20;29.00;40.20
36352;DHT22;22382;44.768;17.206;2022-07-19T10:02:56;29.10;40.70
36352;DHT22;22382;44.768;17.206;2022-07-19T10:05:24;29.20;39.60
36352;DHT22;22382;44.768;17.206;2022-07-19T10:07:52;29.20;39.90
36352;DHT22;22382;44.768;17.206;2022-07-19T10:10:20;28.90;39.60
36352;DHT22;22382;44.768;17.206;2022-07-19T10:12:49;28.90;39.80
36352;DHT22;22382;44.768;17.206;2022-07-19T10:15:18;29.20;39.30
36352;DHT22;22382;44.768;17.206;2022-07-19T10:18:09;29.40;39.20
36352;DHT22;22382;44.768;17.206;2022-07-19T10:20:38;29.30;39.00
36352;DHT22;22382;44.768;17.206;2022-07-19T10:23:06;29.00;38.80
36352;DHT22;22382;44.768;17.206;2022-07-19T10:25:43;29.30;39.10
36352;DHT22;22382;44.768;17.206;2022-07-19T10:28:35;29.10;38.30
36352;DHT22;22382;44.768;17.206;2022-07-19T10:31:28;29.30;38.10
36352;DHT22;22382;44.768;17.206;2022-07-19T10:34:00;29.40;37.70
36352;DHT22;22382;44.768;17.206;2022-07-19T10:36:35;29.50;38.40
36352;DHT22;22382;44.768;17.206;2022-07-19T10:39:22;29.50;37.80
36352;DHT22;22382;44.768;17.206;2022-07-19T10:42:17;29.50;38.00
36352;DHT22;22382;44.768;17.206;2022-07-19T10:50:07;29.80;38.60
36352;DHT22;22382;44.768;17.206;2022-07-19T10:52:38;29.80;37.10
36352;DHT22;22382;44.768;17.206;2022-07-19T10:57:49;30.00;37.60
36352;DHT22;22382;44.768;17.206;2022-07-19T11:02:52;29.90;37.10
36352;DHT22;22382;44.768;17.206;2022-07-19T11:05:23;29.90;37.00
36352;DHT22;22382;44.768;17.206;2022-07-19T11:07:53;30.00;38.10
36352;DHT22;22382;44.768;17.206;2022-07-19T11:10:29;29.60;37.10
36352;DHT22;22382;44.768;17.206;2022-07-19T11:12:58;29.50;37.40
36352;DHT22;22382;44.768;17.206;2022-07-19T11:15:25;29.60;37.80
36352;DHT22;22382;44.768;17.206;2022-07-19T11:18:07;29.50;38.10
36352;DHT22;22382;44.768;17.206;2022-07-19T11:20:36;29.50;37.70
36352;DHT22;22382;44.768;17.206;2022-07-19T11:23:04;29.60;38.00
36352;DHT22;22382;44.768;17.206;2022-07-19T11:25:35;29.60;37.60
36352;DHT22;22382;44.768;17.206;2022-07-19T11:28:03;29.70;37.80
36352;DHT22;22382;44.768;17.206;2022-07-19T11:30:34;29.70;38.00
36352;DHT22;22382;44.768;17.206;2022-07-19T11:33:04;29.30;37.50
36352;DHT22;22382;44.768;17.206;2022-07-19T11:35:36;29.30;38.00
36352;DHT22;22382;44.768;17.206;2022-07-19T11:38:03;29.30;37.40
36352;DHT22;22382;44.768;17.206;2022-07-19T11:40:35;29.30;37.70
36352;DHT22;22382;44.768;17.206;2022-07-19T11:43:08;29.60;37.70
36352;DHT22;22382;44.768;17.206;2022-07-19T11:45:47;29.50;37.30
36352;DHT22;22382;44.768;17.206;2022-07-19T11:48:29;29.50;37.20
36352;DHT22;22382;44.768;17.206;2022-07-19T11:51:09;29.40;37.70
36352;DHT22;22382;44.768;17.206;2022-07-19T11:53:38;29.50;38.40
36352;DHT22;22382;44.768;17.206;2022-07-19T11:56:20;29.80;38.40
36352;DHT22;22382;44.768;17.206;2022-07-19T11:58:48;29.90;37.90
36352;DHT22;22382;44.768;17.206;2022-07-19T12:01:26;29.90;37.60
36352;DHT22;22382;44.768;17.206;2022-07-19T12:03:55;29.70;38.10
36352;DHT22;22382;44.768;17.206;2022-07-19T12:06:41;29.70;37.50
36352;DHT22;22382;44.768;17.206;2022-07-19T12:09:17;29.80;37.80
36352;DHT22;22382;44.768;17.206;2022-07-19T12:11:47;29.80;37.40
36352;DHT22;22382;44.768;17.206;2022-07-19T12:16:49;29.70;37.60
36352;DHT22;22382;44.768;17.206;2022-07-19T12:19:16;29.80;37.80
36352;DHT22;22382;44.768;17.206;2022-07-19T12:21:47;29.90;37.80
36352;DHT22;22382;44.768;17.206;2022-07-19T12:24:15;29.90;37.20
36352;DHT22;22382;44.768;17.206;2022-07-19T12:27:00;30.00;37.00
36352;DHT22;22382;44.768;17.206;2022-07-19T12:32:05;29.90;37.10
36352;DHT22;22382;44.768;17.206;2022-07-19T12:34:46;29.90;37.70
36352;DHT22;22382;44.768;17.206;2022-07-19T12:37:36;30.00;37.70
36352;DHT22;22382;44.768;17.206;2022-07-19T12:40:08;29.90;38.10
36352;DHT22;22382;44.768;17.206;2022-07-19T12:45:12;29.90;38.20
36352;DHT22;22382;44.768;17.206;2022-07-19T12:47:39;30.00;37.60
36352;DHT22;22382;44.768;17.206;2022-07-19T12:50:08;30.00;37.90
36352;DHT22;22382;44.768;17.206;2022-07-19T12:52:38;29.80;38.00
36352;DHT22;22382;44.768;17.206;2022-07-19T12:55:06;29.90;37.30
36352;DHT22;22382;44.768;17.206;2022-07-19T12:57:40;29.80;37.30
36352;DHT22;22382;44.768;17.206;2022-07-19T13:00:08;29.90;37.30
36352;DHT22;22382;44.768;17.206;2022-07-19T13:02:35;29.80;37.40
36352;DHT22;22382;44.768;17.206;2022-07-19T13:05:03;29.90;37.10
36352;DHT22;22382;44.768;17.206;2022-07-19T13:07:30;29.80;37.80
36352;DHT22;22382;44.768;17.206;2022-07-19T13:09:57;30.00;37.50
36352;DHT22;22382;44.768;17.206;2022-07-19T13:12:24;30.10;36.90
36352;DHT22;22382;44.768;17.206;2022-07-19T13:14:51;30.10;37.00
36352;DHT22;22382;44.768;17.206;2022-07-19T13:17:18;30.10;37.10
36352;DHT22;22382;44.768;17.206;2022-07-19T13:19:46;30.10;37.60
36352;DHT22;22382;44.768;17.206;2022-07-19T13:22:13;29.90;36.80
36352;DHT22;22382;44.768;17.206;2022-07-19T13:24:40;30.00;37.00
36352;DHT22;22382;44.768;17.206;2022-07-19T13:27:28;30.10;37.30
36352;DHT22;22382;44.768;17.206;2022-07-19T13:29:55;30.10;38.20
36352;DHT22;22382;44.768;17.206;2022-07-19T13:32:22;30.00;37.50
36352;DHT22;22382;44.768;17.206;2022-07-19T13:34:49;30.00;37.20
36352;DHT22;22382;44.768;17.206;2022-07-19T13:37:17;29.90;37.50
36352;DHT22;22382;44.768;17.206;2022-07-19T13:39:44;29.90;37.80
36352;DHT22;22382;44.768;17.206;2022-07-19T13:42:11;30.00;37.60
36352;DHT22;22382;44.768;17.206;2022-07-19T13:44:38;30.00;37.70
36352;DHT22;22382;44.768;17.206;2022-07-19T13:47:05;30.00;37.40
36352;DHT22;22382;44.768;17.206;2022-07-19T13:49:32;30.10;37.50
36352;DHT22;22382;44.768;17.206;2022-07-19T13:51:59;30.20;37.10
36352;DHT22;22382;44.768;17.206;2022-07-19T13:54:26;30.20;37.40
36352;DHT22;22382;44.768;17.206;2022-07-19T13:56:53;30.30;37.60
36352;DHT22;22382;44.768;17.206;2022-07-19T13:59:20;30.40;37.50
36352;DHT22;22382;44.768;17.206;2022-07-19T14:01:48;30.60;37.00
36352;DHT22;22382;44.768;17.206;2022-07-19T14:04:15;30.50;36.60
36352;DHT22;22382;44.768;17.206;2022-07-19T14:06:49;30.40;36.60
36352;DHT22;22382;44.768;17.206;2022-07-19T14:09:17;30.30;36.90
36352;DHT22;22382;44.768;17.206;2022-07-19T14:11:44;30.30;37.60
36352;DHT22;22382;44.768;17.206;2022-07-19T14:14:12;30.30;36.50
36352;DHT22;22382;44.768;17.206;2022-07-19T14:16:40;30.50;36.20
36352;DHT22;22382;44.768;17.206;2022-07-19T14:19:07;30.70;36.80
36352;DHT22;22382;44.768;17.206;2022-07-19T14:21:35;30.60;36.60
36352;DHT22;22382;44.768;17.206;2022-07-19T14:24:02;30.40;37.00
36352;DHT22;22382;44.768;17.206;2022-07-19T14:26:30;30.50;36.60
36352;DHT22;22382;44.768;17.206;2022-07-19T14:28:57;30.80;36.10
36352;DHT22;22382;44.768;17.206;2022-07-19T14:31:24;30.60;37.20
36352;DHT22;22382;44.768;17.206;2022-07-19T14:33:51;30.40;37.10
36352;DHT22;22382;44.768;17.206;2022-07-19T14:36:39;30.60;37.30
36352;DHT22;22382;44.768;17.206;2022-07-19T14:39:06;30.50;36.80
36352;DHT22;22382;44.768;17.206;2022-07-19T14:41:36;30.70;36.80
36352;DHT22;22382;44.768;17.206;2022-07-19T14:44:04;30.70;36.30
36352;DHT22;22382;44.768;17.206;2022-07-19T14:46:32;30.50;35.90
36352;DHT22;22382;44.768;17.206;2022-07-19T14:48:59;30.40;36.10
36352;DHT22;22382;44.768;17.206;2022-07-19T14:51:26;30.40;35.90
36352;DHT22;22382;44.768;17.206;2022-07-19T14:53:53;30.60;36.00
36352;DHT22;22382;44.768;17.206;2022-07-19T14:56:20;30.60;35.90
36352;DHT22;22382;44.768;17.206;2022-07-19T14:58:47;31.30;36.10
36352;DHT22;22382;44.768;17.206;2022-07-19T15:01:14;33.40;35.10
36352;DHT22;22382;44.768;17.206;2022-07-19T15:03:42;34.90;33.50
36352;DHT22;22382;44.768;17.206;2022-07-19T15:06:09;36.50;32.20
36352;DHT22;22382;44.768;17.206;2022-07-19T15:08:36;36.90;30.80
36352;DHT22;22382;44.768;17.206;2022-07-19T15:11:03;36.60;31.30
36352;DHT22;22382;44.768;17.206;2022-07-19T15:13:30;36.70;31.10
36352;DHT22;22382;44.768;17.206;2022-07-19T15:15:57;36.20;31.30
36352;DHT22;22382;44.768;17.206;2022-07-19T15:18:24;36.20;30.20
36352;DHT22;22382;44.768;17.206;2022-07-19T15:20:51;37.80;29.80
36352;DHT22;22382;44.768;17.206;2022-07-19T15:23:19;37.20;29.90
36352;DHT22;22382;44.768;17.206;2022-07-19T15:25:46;37.20;30.00
36352;DHT22;22382;44.768;17.206;2022-07-19T15:28:13;37.00;30.10
36352;DHT22;22382;44.768;17.206;2022-07-19T15:30:42;36.90;30.20
36352;DHT22;22382;44.768;17.206;2022-07-19T15:33:09;36.60;30.00
36352;DHT22;22382;44.768;17.206;2022-07-19T15:35:36;36.20;30.10
36352;DHT22;22382;44.768;17.206;2022-07-19T15:38:03;36.40;30.10
36352;DHT22;22382;44.768;17.206;2022-07-19T15:40:30;37.20;30.00
36352;DHT22;22382;44.768;17.206;2022-07-19T15:42:57;37.10;30.30
36352;DHT22;22382;44.768;17.206;2022-07-19T15:45:24;36.70;30.60
36352;DHT22;22382;44.768;17.206;2022-07-19T15:47:53;36.40;31.10
36352;DHT22;22382;44.768;17.206;2022-07-19T15:50:20;36.70;31.10